createdAt,value
2022-10-05T00:00:47.143Z,2.50
2022-10-05T00:03:16.015Z,2.30
2022-10-05T00:05:47.195Z,2.60
2022-10-05T00:08:18.636Z,3.00
2022-10-05T00:10:47.984Z,3.00
2022-10-05T00:13:21.103Z,3.00
2022-10-05T00:15:50.767Z,3.03
2022-10-05T00:18:21.645Z,3.40
2022-10-05T00:20:51.055Z,3.30
2022-10-05T00:23:22.661Z,3.00
2022-10-05T00:25:51.877Z,3.30
2022-10-05T00:28:27.630Z,3.63
2022-10-05T00:30:57.413Z,3.40
2022-10-05T00:33:26.477Z,3.20
2022-10-05T00:35:56.029Z,3.30
2022-10-05T00:38:25.105Z,3.47
2022-10-05T00:41:05.956Z,3.20
2022-10-05T00:44:01.867Z,2.93
2022-10-05T00:46:39.975Z,3.37
2022-10-05T00:49:17.891Z,3.43
2022-10-05T00:51:56.858Z,3.77
2022-10-05T00:54:32.205Z,3.30
2022-10-05T00:57:17.256Z,3.67
2022-10-05T00:59:59.368Z,3.40
2022-10-05T01:02:37.091Z,3.07
2022-10-05T01:05:12.814Z,3.00
2022-10-05T01:07:48.883Z,2.23
2022-10-05T01:10:25.605Z,2.90
2022-10-05T01:13:03.872Z,2.50
2022-10-05T01:15:39.801Z,2.40
2022-10-05T01:18:15.236Z,2.33
2022-10-05T01:20:52.401Z,2.30
2022-10-05T01:23:51.777Z,2.33
2022-10-05T01:26:43.898Z,2.60
2022-10-05T01:29:21.518Z,2.40
2022-10-05T01:31:55.611Z,2.73
2022-10-05T01:34:31.575Z,2.60
2022-10-05T01:37:05.185Z,2.90
2022-10-05T01:39:44.226Z,3.03
2022-10-05T01:42:19.009Z,3.23
2022-10-05T01:44:56.073Z,2.97
2022-10-05T01:47:31.236Z,2.67
2022-10-05T01:50:04.566Z,2.70
2022-10-05T01:52:44.895Z,2.20
2022-10-05T01:55:23.715Z,2.00
2022-10-05T01:58:06.082Z,2.13
2022-10-05T02:00:43.307Z,1.93
2022-10-05T02:03:19.154Z,2.30
2022-10-05T02:05:53.539Z,2.37
2022-10-05T02:08:26.699Z,2.27
2022-10-05T02:11:02.191Z,2.37
2022-10-05T02:13:36.541Z,2.37
2022-10-05T02:16:12.072Z,2.13
2022-10-05T02:18:48.129Z,2.00
2022-10-05T02:21:17.777Z,2.20
2022-10-05T02:23:49.463Z,2.07
2022-10-05T02:26:20.022Z,2.70
2022-10-05T02:28:53.687Z,2.47
2022-10-05T02:31:28.602Z,3.00
2022-10-05T02:34:25.920Z,2.37
2022-10-05T02:37:12.206Z,3.00
2022-10-05T02:39:53.200Z,3.07
2022-10-05T02:42:28.846Z,2.80
2022-10-05T02:45:04.535Z,2.60
2022-10-05T02:47:42.885Z,2.97
2022-10-05T02:50:24.376Z,2.80
2022-10-05T02:53:03.359Z,2.57
2022-10-05T02:55:41.575Z,2.87
2022-10-05T02:58:17.168Z,2.63
2022-10-05T03:00:50.562Z,2.63
2022-10-05T03:03:27.380Z,3.33
2022-10-05T03:06:02.034Z,3.13
2022-10-05T03:08:38.013Z,2.73
2022-10-05T03:11:16.043Z,2.67
2022-10-05T03:13:51.914Z,2.57
2022-10-05T03:16:37.052Z,2.17
2022-10-05T03:19:22.156Z,2.50
2022-10-05T03:22:01.022Z,2.60
2022-10-05T03:25:04.493Z,2.40
2022-10-05T03:27:41.004Z,2.80
2022-10-05T03:30:17.483Z,2.20
2022-10-05T03:32:57.741Z,3.03
2022-10-05T03:35:34.022Z,2.57
2022-10-05T03:38:10.488Z,2.90
2022-10-05T03:40:45.944Z,2.70
2022-10-05T03:43:32.541Z,3.07
2022-10-05T03:46:07.665Z,3.40
2022-10-05T03:48:46.038Z,2.80
2022-10-05T03:51:22.492Z,2.80
2022-10-05T03:53:57.095Z,3.33
2022-10-05T03:56:36.083Z,2.87
2022-10-05T03:59:13.181Z,3.00
2022-10-05T04:01:46.857Z,3.03
2022-10-05T04:04:22.216Z,3.00
2022-10-05T04:06:55.163Z,2.80
2022-10-05T04:09:28.689Z,3.50
2022-10-05T04:12:09.385Z,3.10
2022-10-05T04:14:42.481Z,2.50
2022-10-05T04:17:15.250Z,2.37
2022-10-05T04:19:51.988Z,2.57
2022-10-05T04:22:26.184Z,2.80
2022-10-05T04:24:59.529Z,2.93
2022-10-05T04:27:34.440Z,2.70
2022-10-05T04:30:08.158Z,4.00
2022-10-05T04:32:39.914Z,3.77
2022-10-05T04:35:38.488Z,3.30
2022-10-05T04:38:23.403Z,4.10
2022-10-05T04:41:06.671Z,5.23
2022-10-05T04:43:46.885Z,3.47
2022-10-05T04:46:25.411Z,3.83
2022-10-05T04:49:15.085Z,3.80
2022-10-05T04:51:53.163Z,3.50
2022-10-05T04:54:37.007Z,2.80
2022-10-05T04:57:12.675Z,3.33
2022-10-05T05:00:03.019Z,2.87
2022-10-05T05:02:49.060Z,2.73
2022-10-05T05:05:32.683Z,2.90
2022-10-05T05:08:17.774Z,2.70
2022-10-05T05:11:17.393Z,3.93
2022-10-05T05:14:17.357Z,4.43
2022-10-05T05:16:53.358Z,3.60
2022-10-05T05:19:40.832Z,3.67
2022-10-05T05:22:21.482Z,2.97
2022-10-05T05:25:04.543Z,3.57
2022-10-05T05:27:44.087Z,3.43
2022-10-05T05:30:23.890Z,3.40
2022-10-05T05:33:15.373Z,3.50
2022-10-05T05:36:14.324Z,10.07
2022-10-05T05:38:49.493Z,10.93
2022-10-05T05:41:28.030Z,9.00
2022-10-05T05:44:07.127Z,10.33
2022-10-05T05:47:02.407Z,10.20
2022-10-05T05:49:39.142Z,8.60
2022-10-05T05:52:15.500Z,5.10
2022-10-05T05:54:49.566Z,4.03
2022-10-05T05:57:22.587Z,8.83
2022-10-05T06:00:01.286Z,7.47
2022-10-05T06:02:40.297Z,8.83
2022-10-05T06:05:25.096Z,13.00
2022-10-05T06:07:56.029Z,11.17
2022-10-05T06:10:32.351Z,6.60
2022-10-05T06:13:17.329Z,6.20
2022-10-05T06:15:52.571Z,6.53
2022-10-05T06:18:23.413Z,6.53
2022-10-05T06:21:00.769Z,6.57
2022-10-05T06:23:36.706Z,6.47
2022-10-05T06:26:16.269Z,5.90
2022-10-05T06:28:53.047Z,6.97
2022-10-05T06:31:39.078Z,6.30
2022-10-05T06:34:27.332Z,10.17
2022-10-05T06:37:01.344Z,9.20
2022-10-05T06:39:50.385Z,8.73
2022-10-05T06:42:30.801Z,9.03
2022-10-05T06:45:22.524Z,8.57
2022-10-05T06:48:26.103Z,7.70
2022-10-05T06:51:24.582Z,7.70
2022-10-05T06:54:21.038Z,8.20
2022-10-05T06:56:57.389Z,8.17
2022-10-05T06:59:33.259Z,8.10
2022-10-05T07:02:10.725Z,9.23
2022-10-05T07:04:53.075Z,8.57
2022-10-05T07:07:30.744Z,7.40
2022-10-05T07:10:16.348Z,6.47
2022-10-05T07:12:59.730Z,6.13
2022-10-05T07:15:41.463Z,5.30
2022-10-05T07:18:30.316Z,5.20
2022-10-05T07:21:07.330Z,5.10
2022-10-05T07:24:00.243Z,4.60
2022-10-05T07:26:34.709Z,5.53
2022-10-05T07:29:33.630Z,5.60
2022-10-05T07:32:13.858Z,6.07
2022-10-05T07:34:51.174Z,6.57
2022-10-05T07:37:45.299Z,6.97
2022-10-05T07:40:20.402Z,6.60
2022-10-05T07:43:03.829Z,6.53
2022-10-05T07:45:42.254Z,6.57
2022-10-05T07:48:16.677Z,6.87
2022-10-05T07:50:57.774Z,7.30
2022-10-05T07:53:33.644Z,9.33
2022-10-05T07:56:09.968Z,7.60
2022-10-05T07:58:43.984Z,7.13
2022-10-05T08:01:19.122Z,7.30
2022-10-05T08:03:55.306Z,7.83
2022-10-05T08:06:49.527Z,8.03
2022-10-05T08:09:34.269Z,9.07
2022-10-05T08:12:17.760Z,8.90
2022-10-05T08:14:52.768Z,9.20
2022-10-05T08:17:31.917Z,8.57
2022-10-05T08:20:08.359Z,8.43
2022-10-05T08:22:44.962Z,8.20
2022-10-05T08:25:23.014Z,8.70
2022-10-05T08:27:57.577Z,7.93
2022-10-05T08:30:26.289Z,8.02
2022-10-05T08:33:01.622Z,8.10
2022-10-05T08:35:36.583Z,7.80
2022-10-05T08:38:12.457Z,8.00
2022-10-05T08:41:16.090Z,7.63
2022-10-05T08:44:18.608Z,7.35
2022-10-05T08:47:20.638Z,7.55
2022-10-05T08:50:23.178Z,7.07
2022-10-05T08:53:29.851Z,6.68
2022-10-05T08:56:28.980Z,6.70
2022-10-05T08:59:29.522Z,6.63
2022-10-05T09:02:15.280Z,6.97
2022-10-05T09:05:01.542Z,6.47
2022-10-05T09:08:18.649Z,6.00
2022-10-05T09:11:05.073Z,6.82
2022-10-05T09:14:06.284Z,5.50
2022-10-05T09:16:51.232Z,6.03
2022-10-05T09:19:43.900Z,5.45
2022-10-05T09:22:17.636Z,6.03
2022-10-05T09:24:57.098Z,5.65
2022-10-05T09:27:37.445Z,5.78
2022-10-05T09:30:26.890Z,5.70
2022-10-05T09:33:30.690Z,5.95
2022-10-05T09:36:34.063Z,5.85
2022-10-05T09:39:25.887Z,5.63
2022-10-05T09:42:23.390Z,5.95
2022-10-05T09:45:22.480Z,5.15
2022-10-05T09:48:21.903Z,5.15
2022-10-05T09:51:19.643Z,4.65
2022-10-05T09:54:30.027Z,4.53
2022-10-05T09:57:34.086Z,4.68
2022-10-05T10:00:34.356Z,5.18
2022-10-05T10:04:30.495Z,5.50
2022-10-05T10:07:32.424Z,5.28
2022-10-05T10:10:34.161Z,5.55
2022-10-05T10:13:30.940Z,5.95
2022-10-05T10:16:14.197Z,5.57
2022-10-05T10:19:06.861Z,4.43
2022-10-05T10:22:02.932Z,4.57
2022-10-05T10:24:57.535Z,4.30
2022-10-05T10:27:54.171Z,5.18
2022-10-05T10:30:44.535Z,4.60
2022-10-05T10:33:31.085Z,5.03
2022-10-05T10:36:06.979Z,3.90
2022-10-05T10:38:54.753Z,3.92
2022-10-05T10:42:05.790Z,3.83
2022-10-05T10:45:28.627Z,4.93
2022-10-05T10:48:03.411Z,4.32
2022-10-05T10:51:04.319Z,4.25
2022-10-05T10:54:08.642Z,4.60
2022-10-05T10:57:03.108Z,3.80
2022-10-05T11:00:03.911Z,4.22
2022-10-05T11:03:04.837Z,4.30
2022-10-05T11:05:59.903Z,4.22
2022-10-05T11:09:14.411Z,4.00
2022-10-05T11:12:27.527Z,4.05
2022-10-05T11:15:19.456Z,4.57
2022-10-05T11:17:59.889Z,3.90
2022-10-05T11:20:56.066Z,3.88
2022-10-05T11:23:39.902Z,3.72
2022-10-05T11:26:24.580Z,3.85
2022-10-05T11:29:37.187Z,4.20
2022-10-05T11:32:41.953Z,3.78
2022-10-05T11:36:20.169Z,3.55
2022-10-05T11:39:22.268Z,3.00
2022-10-05T11:42:26.260Z,4.90
2022-10-05T11:45:27.804Z,4.20
2022-10-05T11:48:27.793Z,3.75
2022-10-05T11:51:18.761Z,3.78
2022-10-05T11:53:58.387Z,2.97
2022-10-05T11:56:34.228Z,3.03
2022-10-05T11:59:10.797Z,4.20
2022-10-05T12:01:45.676Z,3.05
2022-10-05T12:04:31.601Z,3.20
2022-10-05T12:07:09.720Z,2.55
2022-10-05T12:10:17.555Z,2.78
2022-10-05T12:13:01.225Z,3.00
2022-10-05T12:15:36.900Z,2.90
2022-10-05T12:18:13.603Z,2.80
2022-10-05T12:20:48.609Z,3.45
2022-10-05T12:23:25.901Z,2.90
2022-10-05T12:26:00.869Z,2.35
2022-10-05T12:28:35.623Z,2.40
2022-10-05T12:31:25.613Z,2.83
2022-10-05T12:34:03.264Z,2.90
2022-10-05T12:37:02.954Z,3.40
2022-10-05T12:39:40.097Z,2.78
2022-10-05T12:42:25.957Z,2.58
2022-10-05T12:45:18.897Z,2.47
2022-10-05T12:48:07.642Z,2.42
2022-10-05T12:50:38.670Z,2.28
2022-10-05T12:53:35.798Z,2.00
2022-10-05T12:56:12.169Z,2.55
2022-10-05T12:58:52.768Z,2.17
2022-10-05T13:01:30.558Z,2.30
2022-10-05T13:04:09.931Z,2.75
2022-10-05T13:06:45.657Z,2.40
2022-10-05T13:09:24.144Z,2.45
2022-10-05T13:12:00.478Z,2.30
2022-10-05T13:14:48.860Z,3.25
2022-10-05T13:17:25.751Z,2.40
2022-10-05T13:20:00.164Z,2.22
2022-10-05T13:22:35.941Z,2.13
2022-10-05T13:25:20.815Z,2.97
2022-10-05T13:28:06.219Z,2.78
2022-10-05T13:30:36.727Z,2.90
2022-10-05T13:33:08.439Z,2.60
2022-10-05T13:35:45.910Z,2.92
2022-10-05T13:38:28.522Z,3.63
2022-10-05T13:41:07.799Z,2.97
2022-10-05T13:43:45.843Z,2.75
2022-10-05T13:46:24.622Z,3.10
2022-10-05T13:49:04.508Z,2.42
2022-10-05T13:51:41.864Z,3.08
2022-10-05T13:54:18.606Z,2.95
2022-10-05T13:56:53.910Z,3.00
2022-10-05T13:59:33.332Z,2.78
2022-10-05T14:02:08.032Z,2.85
2022-10-05T14:04:46.747Z,2.67
2022-10-05T14:07:26.229Z,3.50
2022-10-05T14:09:55.064Z,3.65
2022-10-05T14:12:24.941Z,2.92
2022-10-05T14:14:56.848Z,2.85
2022-10-05T14:17:40.939Z,2.58
2022-10-05T14:20:23.735Z,2.42
2022-10-05T14:22:58.153Z,2.35
2022-10-05T14:25:28.241Z,2.60
2022-10-05T14:28:02.097Z,2.15
2022-10-05T14:30:33.507Z,2.45
2022-10-05T14:33:15.470Z,2.58
2022-10-05T14:35:50.109Z,2.35
2022-10-05T14:38:22.478Z,2.88
2022-10-05T14:41:06.185Z,2.90
2022-10-05T14:43:36.270Z,3.60
2022-10-05T14:46:27.211Z,2.75
2022-10-05T14:49:18.107Z,2.70
2022-10-05T14:51:46.817Z,2.53
2022-10-05T14:54:27.459Z,2.83
2022-10-05T14:57:04.950Z,2.45
2022-10-05T14:59:55.271Z,2.53
2022-10-05T15:02:59.198Z,2.22
2022-10-05T15:05:32.624Z,2.60
2022-10-05T15:08:17.338Z,2.88
2022-10-05T15:10:53.286Z,2.58
2022-10-05T15:13:54.750Z,3.42
2022-10-05T15:16:29.118Z,2.53
2022-10-05T15:19:08.261Z,5.32
2022-10-05T15:21:52.017Z,6.07
2022-10-05T15:24:26.547Z,13.05
2022-10-05T15:26:58.295Z,16.48
2022-10-05T15:29:41.936Z,10.00
2022-10-05T15:32:22.005Z,8.35
2022-10-05T15:35:04.033Z,4.88
2022-10-05T15:37:38.408Z,3.88
2022-10-05T15:40:17.228Z,4.10
2022-10-05T15:42:45.908Z,3.00
2022-10-05T15:45:23.380Z,3.03
2022-10-05T15:48:00.157Z,3.40
2022-10-05T15:50:36.194Z,3.47
2022-10-05T15:53:14.524Z,3.97
2022-10-05T15:55:48.379Z,3.80
2022-10-05T15:58:45.693Z,7.78
2022-10-05T16:01:19.723Z,4.68
2022-10-05T16:03:52.052Z,4.65
2022-10-05T16:06:56.497Z,3.80
2022-10-05T16:09:40.126Z,3.85
2022-10-05T16:12:19.289Z,5.40
2022-10-05T16:14:59.789Z,4.53
2022-10-05T16:17:48.006Z,5.38
2022-10-05T16:20:29.828Z,7.03
2022-10-05T16:23:07.176Z,8.35
2022-10-05T16:25:48.088Z,11.13
2022-10-05T16:28:29.121Z,21.58
2022-10-05T16:31:03.608Z,10.38
2022-10-05T16:33:48.743Z,9.07
2022-10-05T16:36:24.986Z,8.38
2022-10-05T16:39:03.382Z,7.40
2022-10-05T16:41:41.407Z,7.88
2022-10-05T16:44:20.811Z,5.53
2022-10-05T16:46:58.002Z,7.00
2022-10-05T16:49:38.559Z,6.88
2022-10-05T16:52:13.521Z,6.53
2022-10-05T16:54:48.224Z,7.55
2022-10-05T16:57:22.796Z,7.25
2022-10-05T17:00:16.904Z,4.10
2022-10-05T17:03:14.422Z,3.67
2022-10-05T17:06:06.190Z,3.97
2022-10-05T17:08:52.583Z,3.40
2022-10-05T17:11:35.176Z,3.72
2022-10-05T17:14:26.115Z,3.97
2022-10-05T17:17:17.705Z,4.40
2022-10-05T17:20:03.257Z,4.00
2022-10-05T17:22:40.051Z,5.22
2022-10-05T17:25:18.928Z,6.03
2022-10-05T17:27:56.092Z,5.07
2022-10-05T17:30:51.442Z,4.65
2022-10-05T17:33:27.953Z,5.40
2022-10-05T17:36:19.359Z,4.35
2022-10-05T17:38:51.904Z,4.60
2022-10-05T17:41:26.679Z,6.57
2022-10-05T17:44:26.497Z,6.85
2022-10-05T17:46:58.830Z,6.20
2022-10-05T17:50:13.817Z,6.25
2022-10-05T17:53:02.676Z,6.95
2022-10-05T17:56:03.736Z,6.70
2022-10-05T17:59:04.534Z,9.50
2022-10-05T18:01:38.070Z,7.80
2022-10-05T18:04:29.137Z,6.78
2022-10-05T18:07:06.947Z,8.30
2022-10-05T18:09:57.630Z,7.05
2022-10-05T18:12:47.705Z,8.68
2022-10-05T18:15:33.509Z,7.60
2022-10-05T18:18:50.375Z,7.00
2022-10-05T18:21:30.497Z,8.05
2022-10-05T18:24:07.218Z,7.13
2022-10-05T18:26:43.998Z,7.18
2022-10-05T18:29:39.518Z,6.80
2022-10-05T18:32:19.533Z,6.78
2022-10-05T18:35:02.171Z,7.28
2022-10-05T18:37:50.501Z,6.50
2022-10-05T18:40:40.082Z,6.68
2022-10-05T18:43:23.236Z,7.03
2022-10-05T18:46:05.515Z,7.28
2022-10-05T18:48:46.816Z,6.60
2022-10-05T18:51:26.102Z,7.18
2022-10-05T18:54:08.756Z,6.97
2022-10-05T18:56:42.421Z,6.70
2022-10-05T18:59:28.367Z,7.03
2022-10-05T19:02:19.819Z,5.50
2022-10-05T19:05:09.179Z,4.50
2022-10-05T19:08:00.018Z,4.78
2022-10-05T19:10:35.520Z,5.18
2022-10-05T19:13:23.277Z,5.28
2022-10-05T19:16:03.118Z,5.18
2022-10-05T19:18:46.509Z,5.72
2022-10-05T19:21:26.207Z,4.78
2022-10-05T19:24:14.030Z,4.93
2022-10-05T19:27:00.011Z,5.20
2022-10-05T19:29:48.288Z,6.10
2022-10-05T19:32:23.904Z,5.70
2022-10-05T19:35:07.029Z,5.20
2022-10-05T19:37:47.586Z,13.50
2022-10-05T19:40:24.328Z,10.35
2022-10-05T19:43:10.079Z,9.60
2022-10-05T19:45:44.656Z,6.88
2022-10-05T19:48:27.822Z,7.53
2022-10-05T19:50:59.117Z,5.32
2022-10-05T19:53:30.539Z,4.07
2022-10-05T19:56:25.549Z,5.57
2022-10-05T19:58:56.514Z,4.90
2022-10-05T20:01:27.341Z,4.05
2022-10-05T20:03:57.948Z,4.70
2022-10-05T20:06:29.486Z,4.85
2022-10-05T20:09:04.497Z,4.53
2022-10-05T20:11:49.574Z,4.50
2022-10-05T20:14:20.781Z,5.15
2022-10-05T20:17:06.931Z,5.43
2022-10-05T20:19:57.436Z,5.40
2022-10-05T20:22:32.740Z,5.78
2022-10-05T20:25:05.689Z,6.30
2022-10-05T20:27:46.507Z,5.40
2022-10-05T20:30:18.332Z,5.97
2022-10-05T20:32:48.993Z,6.22
2022-10-05T20:35:18.623Z,5.93
2022-10-05T20:37:47.236Z,10.20
2022-10-05T20:40:17.644Z,6.25
2022-10-05T20:42:47.865Z,10.13
2022-10-05T20:45:17.260Z,5.88
2022-10-05T20:47:46.563Z,6.00
2022-10-05T20:50:15.846Z,6.10
2022-10-05T20:52:44.655Z,5.78
2022-10-05T20:55:13.456Z,5.35
2022-10-05T20:57:42.549Z,9.77
2022-10-05T21:00:14.373Z,8.55
2022-10-05T21:02:42.919Z,5.25
2022-10-05T21:05:11.633Z,6.25
2022-10-05T21:07:40.946Z,6.55
2022-10-05T21:10:10.241Z,6.28
2022-10-05T21:12:38.888Z,5.63
2022-10-05T21:15:08.103Z,6.03
2022-10-05T21:17:38.834Z,5.57
2022-10-05T21:20:11.523Z,11.95
2022-10-05T21:22:40.468Z,9.05
2022-10-05T21:25:09.876Z,8.90
2022-10-05T21:27:38.509Z,8.60
2022-10-05T21:30:08.525Z,7.10
2022-10-05T21:32:43.959Z,6.32
2022-10-05T21:35:13.182Z,6.43
2022-10-05T21:37:41.813Z,5.63
2022-10-05T21:40:11.336Z,5.13
2022-10-05T21:42:40.072Z,5.18
2022-10-05T21:45:09.971Z,6.18
2022-10-05T21:47:40.021Z,5.75
2022-10-05T21:50:10.298Z,5.70
2022-10-05T21:52:38.990Z,5.73
2022-10-05T21:55:08.525Z,6.00
2022-10-05T21:57:38.267Z,4.73
2022-10-05T22:00:09.985Z,6.28
2022-10-05T22:02:40.070Z,6.93
2022-10-05T22:05:09.416Z,7.03
2022-10-05T22:07:38.466Z,5.73
2022-10-05T22:10:08.238Z,5.30
2022-10-05T22:12:36.992Z,5.37
2022-10-05T22:15:07.121Z,5.30
2022-10-05T22:17:36.176Z,4.83
2022-10-05T22:20:07.065Z,5.43
2022-10-05T22:22:36.025Z,4.70
2022-10-05T22:25:05.810Z,5.50
2022-10-05T22:27:35.710Z,5.17
2022-10-05T22:30:05.754Z,5.30
2022-10-05T22:32:34.328Z,5.73
2022-10-05T22:35:03.766Z,5.33
2022-10-05T22:37:37.888Z,4.77
2022-10-05T22:40:14.773Z,4.73
2022-10-05T22:42:43.422Z,5.03
2022-10-05T22:45:12.258Z,5.33
2022-10-05T22:47:42.273Z,4.47
2022-10-05T22:50:11.142Z,4.50
2022-10-05T22:52:41.443Z,4.50
2022-10-05T22:55:10.815Z,4.47
2022-10-05T22:57:40.196Z,4.23
2022-10-05T23:00:10.927Z,4.20
2022-10-05T23:02:40.346Z,4.30
2022-10-05T23:05:10.429Z,4.63
2022-10-05T23:07:42.493Z,4.53
2022-10-05T23:10:12.589Z,4.97
2022-10-05T23:12:41.213Z,4.87
2022-10-05T23:15:10.908Z,4.50
2022-10-05T23:17:40.468Z,4.50
2022-10-05T23:20:09.755Z,4.27
2022-10-05T23:22:39.969Z,4.33
2022-10-05T23:25:09.500Z,5.20
2022-10-05T23:27:38.891Z,4.67
2022-10-05T23:30:09.918Z,5.10
2022-10-05T23:32:40.014Z,4.50
2022-10-05T23:35:14.731Z,4.57
2022-10-05T23:37:45.904Z,4.40
2022-10-05T23:40:15.269Z,4.57
2022-10-05T23:42:43.977Z,4.43
2022-10-05T23:45:13.325Z,4.37
2022-10-05T23:47:42.161Z,4.77
2022-10-05T23:50:11.246Z,4.60
2022-10-05T23:52:39.811Z,4.63
2022-10-05T23:55:10.757Z,3.97
2022-10-05T23:57:40.308Z,4.30
